createdAt,value
2019-05-09T00:02:15.023Z,80.91
2019-05-09T00:04:56.124Z,81.16
2019-05-09T00:07:33.970Z,81.00
2019-05-09T00:10:11.529Z,81.24
2019-05-09T00:12:46.001Z,81.33
2019-05-09T00:15:20.829Z,80.86
2019-05-09T00:18:03.678Z,79.91
2019-05-09T00:20:43.698Z,79.95
2019-05-09T00:23:26.105Z,80.40
2019-05-09T00:26:04.125Z,80.15
2019-05-09T00:28:44.196Z,80.65
2019-05-09T00:31:25.717Z,80.96
2019-05-09T00:34:00.029Z,80.81
2019-05-09T00:36:33.937Z,80.77
2019-05-09T00:39:06.191Z,81.27
2019-05-09T00:41:37.793Z,81.67
2019-05-09T00:44:10.102Z,81.60
2019-05-09T00:46:43.141Z,82.11
2019-05-09T00:49:16.512Z,82.33
2019-05-09T00:51:47.256Z,81.83
2019-05-09T00:54:17.815Z,82.32
2019-05-09T00:56:48.587Z,81.97
2019-05-09T00:59:33.169Z,81.96
2019-05-09T01:02:04.086Z,82.46
2019-05-09T01:04:34.747Z,81.62
2019-05-09T01:07:05.575Z,82.07
2019-05-09T01:09:36.066Z,82.35
2019-05-09T01:12:06.787Z,81.97
2019-05-09T01:14:37.389Z,82.13
2019-05-09T01:17:08.023Z,81.93
2019-05-09T01:19:38.604Z,82.24
2019-05-09T01:22:13.315Z,81.80
2019-05-09T01:24:45.092Z,82.57
2019-05-09T01:27:15.661Z,81.83
2019-05-09T01:29:48.207Z,82.11
2019-05-09T01:32:36.400Z,82.08
2019-05-09T01:35:07.015Z,81.94
2019-05-09T01:37:37.664Z,81.07
2019-05-09T01:40:08.355Z,81.74
2019-05-09T01:42:43.087Z,81.99
2019-05-09T01:45:14.199Z,81.84
2019-05-09T01:47:44.889Z,80.96
2019-05-09T01:50:19.629Z,81.49
2019-05-09T01:52:50.258Z,81.16
2019-05-09T01:55:23.496Z,80.66
2019-05-09T01:57:54.190Z,81.24
2019-05-09T02:00:25.066Z,80.60
2019-05-09T02:02:56.821Z,80.99
2019-05-09T02:05:43.493Z,80.70
2019-05-09T02:08:14.384Z,80.45
2019-05-09T02:10:45.096Z,80.16
2019-05-09T02:13:19.163Z,80.14
2019-05-09T02:16:03.670Z,80.09
2019-05-09T02:18:38.312Z,80.07
2019-05-09T02:21:11.483Z,79.66
2019-05-09T02:23:43.163Z,80.16
2019-05-09T02:26:15.551Z,80.30
2019-05-09T02:28:46.119Z,80.31
2019-05-09T02:31:16.770Z,80.02
2019-05-09T02:33:54.656Z,80.61
2019-05-09T02:36:25.315Z,81.27
2019-05-09T02:39:09.182Z,81.05
2019-05-09T02:41:58.928Z,81.38
2019-05-09T02:44:12.418Z,82.09
2019-05-09T02:46:53.655Z,81.72
2019-05-09T02:49:24.243Z,81.69
2019-05-09T02:52:12.012Z,81.96
2019-05-09T02:54:42.669Z,81.83
2019-05-09T02:57:13.293Z,81.80
2019-05-09T03:00:03.845Z,81.15
2019-05-09T03:02:43.289Z,81.94
2019-05-09T03:05:14.106Z,80.80
2019-05-09T03:07:50.721Z,81.65
2019-05-09T03:10:22.423Z,81.34
2019-05-09T03:12:53.126Z,80.63
2019-05-09T03:15:31.061Z,81.55
2019-05-09T03:18:01.876Z,81.17
2019-05-09T03:20:34.156Z,81.06
2019-05-09T03:23:04.684Z,81.34
2019-05-09T03:25:40.530Z,80.48
2019-05-09T03:28:28.684Z,80.95
2019-05-09T03:31:10.024Z,80.80
2019-05-09T03:33:41.118Z,81.14
2019-05-09T03:36:11.832Z,81.65
2019-05-09T03:38:44.386Z,80.87
2019-05-09T03:41:19.850Z,80.31
2019-05-09T03:44:20.573Z,80.34
2019-05-09T03:47:13.173Z,80.46
2019-05-09T03:49:43.776Z,79.81
2019-05-09T03:52:17.675Z,80.01
2019-05-09T03:54:53.574Z,80.52
2019-05-09T03:57:28.909Z,80.63
2019-05-09T03:59:59.507Z,80.57
2019-05-09T04:02:30.170Z,81.49
2019-05-09T04:05:00.760Z,81.25
2019-05-09T04:07:32.422Z,80.45
2019-05-09T04:10:07.830Z,80.58
2019-05-09T04:12:52.844Z,81.03
2019-05-09T04:15:10.856Z,80.54
2019-05-09T04:17:44.033Z,80.72
2019-05-09T04:20:14.894Z,80.92
2019-05-09T04:22:59.309Z,80.38
2019-05-09T04:25:31.956Z,80.62
2019-05-09T04:28:03.681Z,80.56
2019-05-09T04:30:34.360Z,80.60
2019-05-09T04:33:09.731Z,81.41
2019-05-09T04:35:49.203Z,80.27
2019-05-09T04:38:24.793Z,80.94
2019-05-09T04:40:55.566Z,81.64
2019-05-09T04:43:35.544Z,81.08
2019-05-09T04:46:01.288Z,80.71
2019-05-09T04:48:37.364Z,80.52
2019-05-09T04:51:15.433Z,81.03
2019-05-09T04:53:47.966Z,80.69
2019-05-09T04:56:19.950Z,81.03
2019-05-09T04:58:58.176Z,80.74
2019-05-09T05:01:38.759Z,81.55
2019-05-09T05:04:08.448Z,81.25
2019-05-09T05:06:40.590Z,80.60
2019-05-09T05:09:11.364Z,81.00
2019-05-09T05:11:42.061Z,79.36
2019-05-09T05:14:22.930Z,79.57
2019-05-09T05:17:07.687Z,79.55
2019-05-09T05:19:35.544Z,80.06
2019-05-09T05:22:13.540Z,79.32
2019-05-09T05:24:48.770Z,79.60
2019-05-09T05:27:19.098Z,77.98
2019-05-09T05:29:49.758Z,77.63
2019-05-09T05:32:32.160Z,78.70
2019-05-09T05:35:04.455Z,78.62
2019-05-09T05:37:35.028Z,78.71
2019-05-09T05:40:07.806Z,77.79
2019-05-09T05:42:44.354Z,78.39
2019-05-09T05:45:18.272Z,78.29
2019-05-09T05:47:57.719Z,76.88
2019-05-09T05:50:28.431Z,78.88
2019-05-09T05:52:59.175Z,77.74
2019-05-09T05:55:29.781Z,77.42
2019-05-09T05:58:08.785Z,77.67
2019-05-09T06:00:43.560Z,78.11
2019-05-09T06:03:17.805Z,78.27
2019-05-09T06:05:58.226Z,75.85
2019-05-09T06:08:28.319Z,76.69
2019-05-09T06:10:59.886Z,75.62
2019-05-09T06:13:34.907Z,75.88
2019-05-09T06:16:08.564Z,76.82
2019-05-09T06:18:39.385Z,76.27
2019-05-09T06:21:10.209Z,75.85
2019-05-09T06:23:48.320Z,76.73
2019-05-09T06:26:21.021Z,75.16
2019-05-09T06:28:57.677Z,74.14
2019-05-09T06:31:29.656Z,76.11
2019-05-09T06:34:15.548Z,75.79
2019-05-09T06:36:48.642Z,75.47
2019-05-09T06:39:25.575Z,74.48
2019-05-09T06:42:10.146Z,74.93
2019-05-09T06:44:49.374Z,74.86
2019-05-09T06:47:22.608Z,74.30
2019-05-09T06:49:57.439Z,73.43
2019-05-09T06:52:28.330Z,74.67
2019-05-09T06:54:59.112Z,73.91
2019-05-09T06:57:29.633Z,72.96
2019-05-09T07:00:00.275Z,71.92
2019-05-09T07:02:32.582Z,72.18
2019-05-09T07:05:08.387Z,72.47
2019-05-09T07:07:57.502Z,72.21
2019-05-09T07:10:28.426Z,70.62
2019-05-09T07:12:59.939Z,70.38
2019-05-09T07:15:30.682Z,70.80
2019-05-09T07:18:01.268Z,69.47
2019-05-09T07:20:33.993Z,70.12
2019-05-09T07:23:04.664Z,71.49
2019-05-09T07:25:44.927Z,70.79
2019-05-09T07:28:17.988Z,70.80
2019-05-09T07:30:53.380Z,70.67
2019-05-09T07:33:28.715Z,70.00
2019-05-09T07:35:59.304Z,70.02
2019-05-09T07:38:32.638Z,70.07
2019-05-09T07:41:03.309Z,69.60
2019-05-09T07:43:33.964Z,70.31
2019-05-09T07:46:21.743Z,68.90
2019-05-09T07:49:03.257Z,68.38
2019-05-09T07:51:33.982Z,68.47
2019-05-09T07:54:21.253Z,68.44
2019-05-09T07:56:38.014Z,69.00
2019-05-09T07:59:08.644Z,69.52
2019-05-09T08:01:39.231Z,69.32
2019-05-09T08:04:09.783Z,69.78
2019-05-09T08:06:40.510Z,68.32
2019-05-09T08:09:11.178Z,69.16
2019-05-09T08:11:41.826Z,69.33
2019-05-09T08:14:12.440Z,69.25
2019-05-09T08:16:43.101Z,69.16
2019-05-09T08:19:13.797Z,68.30
2019-05-09T08:21:44.342Z,67.35
2019-05-09T08:24:14.969Z,67.24
2019-05-09T08:26:47.661Z,65.49
2019-05-09T08:29:20.053Z,65.85
2019-05-09T08:31:50.469Z,67.21
2019-05-09T08:34:21.038Z,66.16
2019-05-09T08:36:51.736Z,67.56
2019-05-09T08:39:22.400Z,66.47
2019-05-09T08:41:54.044Z,66.59
2019-05-09T08:44:24.581Z,65.38
2019-05-09T08:46:57.281Z,64.82
2019-05-09T08:49:37.385Z,65.80
2019-05-09T08:52:15.782Z,64.25
2019-05-09T08:54:45.406Z,64.63
2019-05-09T08:57:18.257Z,64.18
2019-05-09T09:00:13.343Z,63.79
2019-05-09T09:02:45.022Z,63.21
2019-05-09T09:05:18.449Z,65.25
2019-05-09T09:07:51.246Z,63.67
2019-05-09T09:10:21.921Z,64.26
2019-05-09T09:12:52.517Z,63.84
2019-05-09T09:15:23.089Z,62.43
2019-05-09T09:17:53.660Z,61.79
2019-05-09T09:20:24.283Z,62.46
2019-05-09T09:22:54.923Z,61.96
2019-05-09T09:25:25.480Z,60.69
2019-05-09T09:27:58.246Z,61.62
2019-05-09T09:30:29.427Z,62.14
2019-05-09T09:33:00.307Z,60.56
2019-05-09T09:35:30.912Z,62.70
2019-05-09T09:38:01.608Z,62.49
2019-05-09T09:40:53.281Z,62.87
2019-05-09T09:43:23.876Z,62.16
2019-05-09T09:46:10.919Z,60.26
2019-05-09T09:48:38.944Z,61.08
2019-05-09T09:51:09.565Z,61.33
2019-05-09T09:53:40.357Z,59.59
2019-05-09T09:56:12.030Z,59.51
2019-05-09T09:58:44.328Z,61.00
2019-05-09T10:01:18.088Z,60.97
2019-05-09T10:03:50.575Z,59.56
2019-05-09T10:06:21.245Z,60.21
2019-05-09T10:08:51.826Z,60.73
2019-05-09T10:11:23.417Z,60.69
2019-05-09T10:13:54.005Z,61.09
2019-05-09T10:16:30.022Z,60.58
2019-05-09T10:19:08.298Z,60.67
2019-05-09T10:21:43.627Z,60.43
2019-05-09T10:24:17.355Z,58.72
2019-05-09T10:27:08.643Z,58.78
2019-05-09T10:29:39.742Z,58.03
2019-05-09T10:32:18.446Z,56.24
2019-05-09T10:35:08.951Z,56.27
2019-05-09T10:37:44.606Z,55.06
2019-05-09T10:40:23.552Z,55.30
2019-05-09T10:42:58.478Z,56.30
2019-05-09T10:45:39.934Z,56.08
2019-05-09T10:48:08.325Z,56.57
2019-05-09T10:50:44.694Z,57.42
2019-05-09T10:53:13.358Z,57.68
2019-05-09T10:55:45.008Z,57.30
2019-05-09T10:58:20.204Z,57.43
2019-05-09T11:00:58.746Z,58.53
2019-05-09T11:03:29.124Z,58.43
2019-05-09T11:06:05.250Z,56.87
2019-05-09T11:08:38.094Z,57.17
2019-05-09T11:11:09.454Z,55.79
2019-05-09T11:13:42.276Z,56.02
2019-05-09T11:16:12.981Z,56.00
2019-05-09T11:18:43.642Z,56.48
2019-05-09T11:21:14.358Z,56.97
2019-05-09T11:24:03.224Z,57.45
2019-05-09T11:26:33.938Z,56.46
2019-05-09T11:29:19.939Z,57.57
2019-05-09T11:31:50.524Z,58.50
2019-05-09T11:34:26.976Z,56.93
2019-05-09T11:36:58.039Z,58.06
2019-05-09T11:41:02.130Z,58.44
2019-05-09T11:42:02.232Z,59.70
2019-05-09T11:44:32.870Z,58.99
2019-05-09T11:47:04.477Z,59.27
2019-05-09T11:49:48.135Z,59.85
2019-05-09T11:52:19.588Z,59.25
2019-05-09T11:54:50.172Z,58.75
2019-05-09T11:57:20.835Z,58.98
2019-05-09T11:59:53.521Z,59.92
2019-05-09T12:02:25.173Z,60.31
2019-05-09T12:04:56.840Z,59.94
2019-05-09T12:07:28.849Z,59.41
2019-05-09T12:09:59.580Z,59.26
2019-05-09T12:12:30.186Z,59.85
2019-05-09T12:15:00.866Z,58.98
2019-05-09T12:17:57.880Z,59.21
2019-05-09T12:20:27.684Z,58.14
2019-05-09T12:22:59.434Z,56.20
2019-05-09T12:25:30.120Z,56.59
2019-05-09T12:28:02.819Z,56.74
2019-05-09T12:30:38.117Z,54.98
2019-05-09T12:33:11.983Z,56.09
2019-05-09T12:35:42.575Z,57.77
2019-05-09T12:38:13.143Z,57.10
2019-05-09T12:40:48.313Z,56.77
2019-05-09T12:43:18.903Z,56.94
2019-05-09T12:45:50.557Z,56.64
2019-05-09T12:48:21.370Z,57.81
2019-05-09T12:50:58.554Z,57.36
2019-05-09T12:53:32.655Z,56.70
2019-05-09T12:56:03.536Z,57.35
2019-05-09T12:58:34.251Z,56.30
2019-05-09T13:01:07.529Z,55.21
2019-05-09T13:03:38.458Z,55.87
2019-05-09T13:06:09.376Z,55.59
2019-05-09T13:08:40.036Z,55.22
2019-05-09T13:11:10.706Z,55.42
2019-05-09T13:13:41.678Z,55.83
2019-05-09T13:16:43.405Z,56.54
2019-05-09T13:19:06.753Z,56.92
2019-05-09T13:21:38.908Z,57.04
2019-05-09T13:24:09.751Z,57.07
2019-05-09T13:26:42.824Z,57.12
2019-05-09T13:29:38.097Z,57.47
2019-05-09T13:32:08.744Z,57.67
2019-05-09T13:34:52.842Z,57.39
2019-05-09T13:37:24.414Z,57.95
2019-05-09T13:40:02.907Z,58.13
2019-05-09T13:42:39.462Z,58.73
2019-05-09T13:45:20.039Z,58.35
2019-05-09T13:47:51.562Z,57.74
2019-05-09T13:50:32.077Z,57.22
2019-05-09T13:53:02.738Z,57.87
2019-05-09T13:55:33.329Z,57.46
2019-05-09T13:58:10.877Z,57.01
2019-05-09T14:00:55.760Z,54.45
2019-05-09T14:03:14.870Z,54.14
2019-05-09T14:05:47.942Z,53.64
2019-05-09T14:08:18.820Z,54.02
2019-05-09T14:10:49.468Z,54.53
2019-05-09T14:13:23.367Z,52.91
2019-05-09T14:15:57.647Z,53.63
2019-05-09T14:18:31.399Z,54.13
2019-05-09T14:21:07.767Z,54.62
2019-05-09T14:24:14.077Z,54.47
2019-05-09T14:26:35.168Z,55.39
2019-05-09T14:29:05.809Z,54.92
2019-05-09T14:31:55.910Z,55.04
2019-05-09T14:34:26.478Z,55.48
2019-05-09T14:37:02.885Z,55.58
2019-05-09T14:39:34.481Z,57.08
2019-05-09T14:42:05.191Z,57.20
2019-05-09T14:44:37.713Z,56.93
2019-05-09T14:47:08.539Z,57.86
2019-05-09T14:49:44.000Z,56.69
2019-05-09T14:52:13.380Z,56.26
2019-05-09T14:54:44.084Z,57.10
2019-05-09T14:57:22.891Z,57.39
2019-05-09T14:59:58.447Z,56.60
2019-05-09T15:02:29.384Z,55.60
2019-05-09T15:05:02.611Z,56.35
2019-05-09T15:07:33.968Z,55.49
2019-05-09T15:10:05.416Z,55.29
2019-05-09T15:12:42.020Z,54.82
2019-05-09T15:15:12.639Z,53.77
2019-05-09T15:17:43.315Z,54.15
2019-05-09T15:20:18.036Z,55.38
2019-05-09T15:23:02.709Z,54.83
2019-05-09T15:25:38.939Z,55.31
2019-05-09T15:28:11.651Z,55.60
2019-05-09T15:30:48.703Z,54.68
2019-05-09T15:33:18.228Z,55.51
2019-05-09T15:35:59.568Z,55.39
2019-05-09T15:38:30.255Z,54.67
2019-05-09T15:41:01.019Z,53.23
2019-05-09T15:43:44.807Z,53.83
2019-05-09T15:46:18.691Z,54.17
2019-05-09T15:48:58.629Z,53.74
2019-05-09T15:51:32.143Z,53.21
2019-05-09T15:54:04.034Z,53.14
2019-05-09T15:56:34.799Z,53.71
2019-05-09T15:59:18.180Z,52.83
2019-05-09T16:01:50.769Z,52.69
2019-05-09T16:04:21.637Z,52.30
2019-05-09T16:06:57.563Z,52.66
2019-05-09T16:09:28.687Z,53.19
2019-05-09T16:11:59.365Z,53.86
2019-05-09T16:14:29.995Z,53.52
2019-05-09T16:17:07.948Z,53.68
2019-05-09T16:19:40.678Z,54.32
2019-05-09T16:22:11.341Z,54.72
2019-05-09T16:24:42.020Z,54.25
2019-05-09T16:27:20.661Z,55.04
2019-05-09T16:29:53.538Z,54.73
2019-05-09T16:32:37.483Z,54.88
2019-05-09T16:35:10.848Z,55.27
2019-05-09T16:37:58.391Z,55.67
2019-05-09T16:40:13.696Z,55.44
2019-05-09T16:42:47.547Z,55.50
2019-05-09T16:45:18.338Z,56.11
2019-05-09T16:47:57.515Z,56.00
2019-05-09T16:50:28.239Z,55.71
2019-05-09T16:52:58.917Z,56.15
2019-05-09T16:55:43.790Z,56.67
2019-05-09T16:58:20.164Z,56.87
2019-05-09T17:00:52.648Z,56.60
2019-05-09T17:03:23.311Z,56.90
2019-05-09T17:05:53.998Z,56.72
2019-05-09T17:08:24.658Z,56.79
2019-05-09T17:11:09.396Z,57.50
2019-05-09T17:13:42.104Z,57.19
2019-05-09T17:16:12.798Z,57.31
2019-05-09T17:18:49.955Z,57.86
2019-05-09T17:21:28.225Z,57.88
2019-05-09T17:24:01.639Z,57.56
2019-05-09T17:26:32.274Z,57.44
2019-05-09T17:29:05.142Z,57.85
2019-05-09T17:31:38.378Z,58.20
2019-05-09T17:34:09.797Z,57.87
2019-05-09T17:36:40.651Z,57.33
2019-05-09T17:39:11.253Z,57.66
2019-05-09T17:41:41.960Z,61.10
2019-05-09T17:44:20.023Z,62.62
2019-05-09T17:46:57.759Z,63.22
2019-05-09T17:49:28.161Z,64.94
2019-05-09T17:51:58.877Z,65.69
2019-05-09T17:54:29.571Z,69.64
2019-05-09T17:57:00.350Z,73.05
2019-05-09T17:59:35.036Z,73.15
2019-05-09T18:02:05.847Z,73.53
2019-05-09T18:04:37.954Z,73.90
2019-05-09T18:07:10.696Z,73.97
2019-05-09T18:09:44.419Z,74.18
2019-05-09T18:12:15.168Z,74.62
2019-05-09T18:14:51.958Z,73.84
2019-05-09T18:17:22.562Z,75.03
2019-05-09T18:20:08.052Z,75.03
2019-05-09T18:22:39.989Z,74.79
2019-05-09T18:25:25.861Z,75.64
2019-05-09T18:27:58.892Z,77.14
2019-05-09T18:30:30.015Z,78.01
2019-05-09T18:33:02.592Z,78.40
2019-05-09T18:35:40.223Z,78.86
2019-05-09T18:38:17.425Z,78.55
2019-05-09T18:40:48.285Z,79.07
2019-05-09T18:43:18.989Z,79.27
2019-05-09T18:45:54.614Z,79.52
2019-05-09T18:48:27.783Z,78.92
2019-05-09T18:50:58.635Z,79.34
2019-05-09T18:53:34.214Z,79.57
2019-05-09T18:56:04.799Z,80.26
2019-05-09T18:58:38.481Z,80.55
2019-05-09T19:01:17.256Z,80.57
2019-05-09T19:03:48.022Z,74.78
2019-05-09T19:06:21.892Z,70.81
2019-05-09T19:08:54.857Z,71.40
2019-05-09T19:11:32.651Z,74.95
2019-05-09T19:14:04.955Z,75.17
2019-05-09T19:16:43.111Z,76.19
2019-05-09T19:19:15.352Z,76.52
2019-05-09T19:21:47.676Z,77.66
2019-05-09T19:24:18.532Z,79.40
2019-05-09T19:26:57.228Z,79.10
2019-05-09T19:29:34.609Z,79.42
2019-05-09T19:32:12.045Z,80.78
2019-05-09T19:34:45.050Z,79.37
2019-05-09T19:37:16.227Z,80.95
2019-05-09T19:39:46.884Z,81.24
2019-05-09T19:42:17.519Z,79.36
2019-05-09T19:44:53.895Z,78.99
2019-05-09T19:47:24.654Z,80.00
2019-05-09T19:50:00.796Z,79.78
2019-05-09T19:52:38.260Z,80.87
2019-05-09T19:55:03.843Z,80.48
2019-05-09T19:57:38.691Z,80.47
2019-05-09T20:00:12.638Z,80.35
2019-05-09T20:03:05.274Z,81.64
2019-05-09T20:05:36.071Z,81.39
2019-05-09T20:08:23.530Z,79.99
2019-05-09T20:11:07.884Z,80.09
2019-05-09T20:13:42.168Z,80.73
2019-05-09T20:16:12.849Z,81.21
2019-05-09T20:18:43.503Z,82.48
2019-05-09T20:21:15.225Z,82.00
2019-05-09T20:23:52.178Z,81.72
2019-05-09T20:26:26.695Z,81.57
2019-05-09T20:28:57.365Z,81.33
2019-05-09T20:31:29.170Z,81.94
2019-05-09T20:33:59.771Z,80.32
2019-05-09T20:36:42.011Z,81.08
2019-05-09T20:39:19.956Z,80.88
2019-05-09T20:41:57.630Z,80.71
2019-05-09T20:44:32.710Z,81.18
2019-05-09T20:47:03.738Z,81.42
2019-05-09T20:49:34.824Z,81.95
2019-05-09T20:52:06.853Z,81.90
2019-05-09T20:54:37.647Z,81.47
2019-05-09T20:57:11.795Z,81.54
2019-05-09T20:59:42.705Z,81.83
2019-05-09T21:02:25.925Z,81.97
2019-05-09T21:05:09.122Z,81.63
2019-05-09T21:07:41.089Z,81.69
2019-05-09T21:10:12.091Z,82.71
2019-05-09T21:12:49.650Z,82.46
2019-05-09T21:15:20.494Z,81.18
2019-05-09T21:17:51.452Z,82.56
2019-05-09T21:20:22.333Z,83.79
2019-05-09T21:22:53.259Z,83.68
2019-05-09T21:25:24.241Z,83.85
2019-05-09T21:27:56.050Z,83.48
2019-05-09T21:30:27.211Z,82.81
2019-05-09T21:33:06.296Z,83.36
2019-05-09T21:35:52.194Z,83.75
2019-05-09T21:38:24.128Z,83.77
2019-05-09T21:40:54.718Z,82.42
2019-05-09T21:43:26.635Z,83.02
2019-05-09T21:45:58.978Z,82.02
2019-05-09T21:48:38.497Z,83.41
2019-05-09T21:51:09.082Z,83.58
2019-05-09T21:53:55.681Z,83.39
2019-05-09T21:56:27.932Z,84.19
2019-05-09T21:58:59.528Z,83.84
2019-05-09T22:01:32.227Z,83.52
2019-05-09T22:04:08.398Z,83.56
2019-05-09T22:06:40.335Z,83.00
2019-05-09T22:09:11.461Z,83.17
2019-05-09T22:11:47.042Z,83.83
2019-05-09T22:14:18.141Z,82.93
2019-05-09T22:16:49.341Z,82.56
2019-05-09T22:19:31.298Z,82.48
2019-05-09T22:22:06.959Z,82.54
2019-05-09T22:24:38.959Z,81.96
2019-05-09T22:27:09.969Z,81.23
2019-05-09T22:29:40.739Z,82.30
2019-05-09T22:32:13.489Z,80.73
2019-05-09T22:34:50.332Z,80.67
2019-05-09T22:37:21.254Z,80.84
2019-05-09T22:39:53.987Z,81.53
2019-05-09T22:42:24.645Z,80.87
2019-05-09T22:44:55.228Z,82.18
2019-05-09T22:47:25.985Z,82.35
2019-05-09T22:49:56.705Z,82.62
2019-05-09T22:52:27.328Z,82.19
2019-05-09T22:54:57.930Z,81.34
2019-05-09T22:57:28.515Z,80.62
2019-05-09T22:59:59.157Z,79.29
2019-05-09T23:02:29.786Z,77.80
2019-05-09T23:05:00.582Z,77.77
2019-05-09T23:07:32.295Z,77.13
2019-05-09T23:10:03.017Z,77.55
2019-05-09T23:12:38.626Z,77.92
2019-05-09T23:15:11.050Z,77.49
2019-05-09T23:17:41.620Z,77.26
2019-05-09T23:20:30.021Z,77.64
2019-05-09T23:23:02.252Z,77.94
2019-05-09T23:25:32.819Z,79.37
2019-05-09T23:28:04.069Z,80.07
2019-05-09T23:30:40.796Z,80.24
2019-05-09T23:33:12.508Z,80.43
2019-05-09T23:35:43.074Z,80.16
2019-05-09T23:38:23.384Z,80.35
2019-05-09T23:40:54.075Z,80.59
2019-05-09T23:43:24.666Z,81.34
2019-05-09T23:45:55.354Z,80.86
2019-05-09T23:48:25.945Z,80.87
2019-05-09T23:50:56.524Z,80.42
2019-05-09T23:53:32.973Z,80.14
2019-05-09T23:56:33.819Z,80.51
2019-05-09T23:59:22.557Z,80.18
